This is the latest recevied weather packets stored in our database for station/object G8LMY. If no packets are shown the sender has not sent any weather packets the latest 10 day(s).
| Time | Temp. | Humidity | Pressure | Rain* | Wind** | Luminosity | Snow |
|---|---|---|---|---|---|---|---|
| 1777828134 | 19.44° C | 63% | 1008.1 hPa | 0 mm | - | - | - |
| 1777827235 | 19.44° C | 62% | 1008.1 hPa | 0 mm | - | - | - |
| 1777826335 | 20° C | 61% | 1008 hPa | 0 mm | - | - | - |
| 1777824535 | 17.78° C | 68% | 1008.3 hPa | 0 mm | - | - | - |
| 1777823635 | 18.89° C | 65% | 1008.3 hPa | 0 mm | - | - | - |
| 1777822735 | 18.89° C | 63% | 1008.3 hPa | 0 mm | - | - | - |
| 1777821835 | 18.89° C | 65% | 1008.3 hPa | 0 mm | - | - | - |
| 1777820935 | 18.33° C | 66% | 1008.3 hPa | 0 mm | - | - | - |
| 1777820035 | 17.22° C | 68% | 1008.5 hPa | 0 mm | - | - | - |
| 1777819135 | 16.67° C | 71% | 1008.6 hPa | 0 mm | - | - | - |
| 1777818235 | 17.22° C | 69% | 1008.7 hPa | 0 mm | - | - | - |
| 1777817335 | 17.22° C | 69% | 1008.6 hPa | 0 mm | - | - | - |
| 1777815534 | 17.22° C | 69% | 1008.8 hPa | 0 mm | - | - | - |
| 1777814634 | 17.78° C | 68% | 1008.9 hPa | 0 mm | - | - | - |
| 1777813734 | 17.78° C | 70% | 1008.9 hPa | 0 mm | - | - | - |
| 1777812834 | 17.22° C | 68% | 1008.9 hPa | 0 mm | - | - | - |
| 1777811934 | 16.67° C | 71% | 1008.9 hPa | 0 mm | - | - | - |
| 1777811035 | 16.11° C | 73% | 1008.9 hPa | 0 mm | - | - | - |
| 1777810134 | 16.11° C | 71% | 1008.9 hPa | 0 mm | - | - | - |
| 1777809234 | 16.11° C | 73% | 1008.9 hPa | 0 mm | - | - | - |
| 1777808334 | 15.56° C | 77% | 1009.1 hPa | 0 mm | - | - | - |
| 1777807434 | 15° C | 77% | 1009.2 hPa | 0 mm | - | - | - |
| 1777805634 | 15° C | 77% | 1009.2 hPa | 0 mm | - | - | - |
| 1777804734 | 14.44° C | 78% | 1009.2 hPa | 0 mm | - | - | - |
| 1777803834 | 14.44° C | 80% | 1009.3 hPa | 0 mm | - | - | - |
* Rain latest hour (hover to see other rain measurements)
** Current wind speed in m/s (hover to see current wind gust speed)